createdAt,value
2019-03-29T00:01:06.764Z,84.59
2019-03-29T00:03:35.247Z,84.38
2019-03-29T00:06:03.738Z,84.36
2019-03-29T00:08:32.142Z,84.37
2019-03-29T00:11:00.548Z,84.83
2019-03-29T00:13:28.975Z,84.57
2019-03-29T00:15:57.372Z,84.59
2019-03-29T00:18:25.766Z,84.89
2019-03-29T00:20:54.199Z,85.28
2019-03-29T00:23:23.085Z,85.64
2019-03-29T00:25:51.703Z,85.80
2019-03-29T00:28:20.122Z,85.41
2019-03-29T00:30:48.567Z,85.30
2019-03-29T00:33:16.989Z,85.30
2019-03-29T00:35:45.421Z,85.63
2019-03-29T00:38:13.826Z,85.70
2019-03-29T00:40:42.299Z,85.91
2019-03-29T00:43:10.741Z,85.84
2019-03-29T00:45:39.273Z,85.64
2019-03-29T00:48:07.697Z,85.84
2019-03-29T00:50:36.124Z,86.15
2019-03-29T00:53:04.600Z,86.27
2019-03-29T00:55:32.995Z,86.51
2019-03-29T00:58:01.446Z,86.31
2019-03-29T01:00:31.575Z,86.57
2019-03-29T01:02:59.984Z,86.66
2019-03-29T01:05:28.470Z,86.32
2019-03-29T01:08:07.071Z,86.47
2019-03-29T01:10:27.141Z,86.17
2019-03-29T01:12:55.553Z,85.99
2019-03-29T01:15:23.976Z,86.22
2019-03-29T01:17:52.370Z,86.26
2019-03-29T01:20:21.202Z,86.60
2019-03-29T01:22:50.440Z,86.74
2019-03-29T01:25:18.854Z,86.84
2019-03-29T01:27:47.249Z,86.69
2019-03-29T01:30:15.782Z,86.42
2019-03-29T01:32:44.188Z,86.66
2019-03-29T01:35:12.751Z,86.54
2019-03-29T01:37:41.175Z,86.20
2019-03-29T01:40:09.809Z,86.60
2019-03-29T01:42:38.222Z,86.91
2019-03-29T01:45:08.233Z,86.82
2019-03-29T01:47:36.728Z,86.71
2019-03-29T01:50:07.958Z,87.19
2019-03-29T01:52:36.576Z,86.98
2019-03-29T01:55:07.877Z,87.01
2019-03-29T01:57:36.379Z,87.46
2019-03-29T02:00:06.210Z,87.31
2019-03-29T02:02:34.634Z,87.75
2019-03-29T02:05:03.926Z,87.62
2019-03-29T02:07:32.340Z,87.66
2019-03-29T02:10:00.800Z,87.86
2019-03-29T02:12:29.181Z,88.04
2019-03-29T02:14:57.664Z,87.88
2019-03-29T02:17:26.101Z,87.79
2019-03-29T02:19:54.601Z,87.64
2019-03-29T02:22:23.010Z,87.83
2019-03-29T02:24:51.503Z,87.75
2019-03-29T02:27:19.918Z,87.81
2019-03-29T02:29:48.363Z,87.75
2019-03-29T02:32:16.749Z,87.77
2019-03-29T02:34:45.156Z,87.68
2019-03-29T02:37:13.570Z,87.80
2019-03-29T02:39:41.981Z,87.91
2019-03-29T02:42:10.395Z,87.39
2019-03-29T02:44:38.795Z,87.83
2019-03-29T02:47:07.207Z,87.74
2019-03-29T02:49:35.624Z,87.85
2019-03-29T02:52:04.290Z,87.64
2019-03-29T02:54:32.698Z,88.22
2019-03-29T02:57:01.133Z,88.22
2019-03-29T02:59:29.530Z,88.20
2019-03-29T03:01:58.007Z,88.12
2019-03-29T03:04:26.426Z,88.20
2019-03-29T03:06:54.828Z,87.65
2019-03-29T03:09:23.240Z,87.72
2019-03-29T03:11:51.735Z,87.55
2019-03-29T03:14:20.127Z,86.79
2019-03-29T03:16:48.549Z,86.91
2019-03-29T03:19:16.941Z,87.51
2019-03-29T03:21:45.417Z,87.59
2019-03-29T03:24:13.818Z,87.37
2019-03-29T03:26:42.210Z,87.22
2019-03-29T03:29:10.637Z,87.15
2019-03-29T03:31:39.054Z,87.53
2019-03-29T03:34:07.601Z,87.13
2019-03-29T03:36:36.017Z,87.69
2019-03-29T03:39:07.455Z,87.91
2019-03-29T03:41:35.912Z,87.98
2019-03-29T03:44:04.397Z,87.56
2019-03-29T03:46:32.906Z,87.15
2019-03-29T03:49:01.323Z,87.44
2019-03-29T03:51:29.906Z,87.75
2019-03-29T03:53:58.408Z,87.21
2019-03-29T03:56:28.527Z,87.53
2019-03-29T03:58:58.058Z,86.70
2019-03-29T04:01:26.467Z,86.97
2019-03-29T04:03:54.881Z,86.84
2019-03-29T04:06:23.300Z,86.84
2019-03-29T04:08:51.735Z,86.75
2019-03-29T04:11:20.144Z,86.85
2019-03-29T04:13:48.541Z,87.33
2019-03-29T04:16:16.981Z,87.34
2019-03-29T04:18:45.421Z,86.59
2019-03-29T04:21:13.869Z,87.32
2019-03-29T04:23:42.311Z,87.69
2019-03-29T04:26:10.718Z,88.27
2019-03-29T04:28:39.128Z,88.15
2019-03-29T04:31:07.549Z,87.29
2019-03-29T04:33:35.959Z,87.00
2019-03-29T04:36:04.404Z,88.06
2019-03-29T04:38:32.824Z,87.43
2019-03-29T04:41:01.223Z,87.65
2019-03-29T04:43:29.645Z,87.01
2019-03-29T04:45:58.051Z,86.67
2019-03-29T04:48:26.472Z,87.34
2019-03-29T04:50:55.033Z,87.72
2019-03-29T04:53:23.438Z,87.57
2019-03-29T04:55:51.874Z,87.57
2019-03-29T04:58:20.277Z,87.63
2019-03-29T05:00:48.744Z,87.57
2019-03-29T05:03:17.866Z,87.14
2019-03-29T05:05:46.247Z,87.68
2019-03-29T05:08:14.681Z,87.93
2019-03-29T05:10:43.125Z,87.96
2019-03-29T05:13:11.601Z,87.80
2019-03-29T05:15:40.023Z,87.99
2019-03-29T05:18:08.447Z,87.90
2019-03-29T05:20:36.857Z,87.91
2019-03-29T05:23:05.327Z,87.69
2019-03-29T05:25:33.757Z,87.70
2019-03-29T05:28:02.206Z,87.96
2019-03-29T05:30:30.644Z,87.84
2019-03-29T05:32:59.219Z,88.20
2019-03-29T05:35:27.666Z,87.83
2019-03-29T05:37:56.057Z,88.13
2019-03-29T05:40:34.714Z,88.07
2019-03-29T05:42:54.604Z,87.94
2019-03-29T05:45:23.011Z,88.57
2019-03-29T05:47:51.450Z,88.42
2019-03-29T05:50:20.347Z,88.36
2019-03-29T05:52:48.807Z,87.92
2019-03-29T05:55:17.221Z,88.11
2019-03-29T05:57:45.622Z,88.10
2019-03-29T06:00:15.839Z,87.91
2019-03-29T06:02:44.247Z,88.22
2019-03-29T06:05:12.672Z,88.20
2019-03-29T06:07:41.076Z,88.99
2019-03-29T06:10:09.706Z,89.41
2019-03-29T06:12:38.534Z,88.95
2019-03-29T06:15:07.506Z,89.13
2019-03-29T06:17:48.066Z,89.33
2019-03-29T06:20:08.045Z,89.37
2019-03-29T06:22:36.468Z,89.69
2019-03-29T06:25:07.123Z,89.77
2019-03-29T06:27:35.520Z,89.84
2019-03-29T06:30:05.976Z,90.18
2019-03-29T06:32:34.465Z,90.14
2019-03-29T06:35:03.048Z,90.55
2019-03-29T06:37:33.206Z,90.60
2019-03-29T06:40:01.839Z,90.62
2019-03-29T06:42:30.288Z,91.03
2019-03-29T06:44:58.733Z,91.03
2019-03-29T06:47:27.125Z,91.04
2019-03-29T06:49:55.602Z,91.16
2019-03-29T06:52:24.085Z,91.23
2019-03-29T06:54:52.491Z,91.21
2019-03-29T06:57:20.983Z,90.94
2019-03-29T06:59:49.384Z,91.03
2019-03-29T07:02:17.892Z,90.85
2019-03-29T07:04:46.302Z,90.78
2019-03-29T07:07:14.718Z,90.81
2019-03-29T07:09:43.114Z,90.63
2019-03-29T07:12:11.528Z,90.55
2019-03-29T07:14:39.964Z,90.52
2019-03-29T07:17:10.292Z,90.46
2019-03-29T07:19:38.523Z,90.58
2019-03-29T07:22:06.948Z,90.65
2019-03-29T07:24:35.389Z,90.38
2019-03-29T07:27:03.824Z,90.34
2019-03-29T07:29:32.383Z,90.44
2019-03-29T07:32:00.819Z,90.58
2019-03-29T07:34:29.230Z,89.99
2019-03-29T07:36:57.649Z,89.80
2019-03-29T07:39:26.960Z,89.67
2019-03-29T07:41:55.404Z,89.64
2019-03-29T07:44:23.817Z,89.71
2019-03-29T07:46:52.298Z,89.32
2019-03-29T07:49:20.696Z,89.13
2019-03-29T07:51:49.140Z,89.11
2019-03-29T07:54:17.519Z,88.75
2019-03-29T07:56:45.919Z,88.57
2019-03-29T07:59:15.999Z,88.61
2019-03-29T08:01:44.414Z,88.33
2019-03-29T08:04:12.839Z,88.04
2019-03-29T08:06:41.245Z,86.91
2019-03-29T08:09:21.570Z,86.95
2019-03-29T08:11:46.289Z,86.47
2019-03-29T08:14:10.053Z,86.17
2019-03-29T08:16:38.446Z,85.90
2019-03-29T08:19:06.881Z,85.40
2019-03-29T08:21:35.281Z,85.44
2019-03-29T08:24:03.772Z,85.14
2019-03-29T08:26:32.192Z,84.39
2019-03-29T08:29:00.617Z,84.58
2019-03-29T08:31:29.027Z,84.45
2019-03-29T08:33:57.469Z,83.93
2019-03-29T08:36:25.880Z,83.85
2019-03-29T08:38:54.312Z,83.67
2019-03-29T08:41:22.735Z,83.42
2019-03-29T08:43:51.172Z,83.21
2019-03-29T08:46:19.594Z,82.57
2019-03-29T08:48:48.051Z,82.55
2019-03-29T08:51:16.532Z,81.86
2019-03-29T08:53:45.015Z,80.50
2019-03-29T08:56:13.932Z,81.30
2019-03-29T08:58:42.342Z,81.28
2019-03-29T09:01:10.825Z,81.62
2019-03-29T09:03:39.344Z,82.00
2019-03-29T09:06:07.890Z,80.50
2019-03-29T09:08:36.322Z,81.42
2019-03-29T09:11:07.589Z,80.64
2019-03-29T09:13:35.110Z,80.28
2019-03-29T09:16:03.614Z,79.96
2019-03-29T09:18:32.028Z,79.05
2019-03-29T09:21:00.527Z,79.79
2019-03-29T09:23:30.306Z,80.05
2019-03-29T09:25:59.018Z,80.16
2019-03-29T09:28:27.449Z,80.51
2019-03-29T09:30:56.738Z,80.64
2019-03-29T09:33:25.334Z,80.75
2019-03-29T09:35:53.761Z,80.64
2019-03-29T09:38:22.274Z,80.38
2019-03-29T09:40:58.789Z,79.94
2019-03-29T09:43:21.230Z,79.75
2019-03-29T09:45:49.739Z,79.81
2019-03-29T09:48:18.142Z,79.27
2019-03-29T09:50:50.443Z,77.48
2019-03-29T09:53:16.817Z,76.59
2019-03-29T09:55:45.862Z,75.50
2019-03-29T09:58:16.584Z,76.32
2019-03-29T10:00:44.694Z,76.32
2019-03-29T10:03:13.145Z,75.08
2019-03-29T10:05:41.577Z,75.60
2019-03-29T10:08:10.052Z,75.61
2019-03-29T10:10:38.478Z,75.40
2019-03-29T10:13:07.071Z,75.37
2019-03-29T10:15:35.510Z,75.06
2019-03-29T10:18:03.905Z,74.33
2019-03-29T10:20:32.306Z,74.64
2019-03-29T10:23:00.717Z,73.66
2019-03-29T10:25:29.136Z,72.33
2019-03-29T10:27:57.542Z,71.63
2019-03-29T10:30:46.527Z,70.62
2019-03-29T10:33:14.294Z,69.36
2019-03-29T10:35:51.621Z,69.17
2019-03-29T10:38:13.120Z,68.88
2019-03-29T10:40:41.661Z,69.67
2019-03-29T10:43:10.351Z,69.23
2019-03-29T10:45:40.649Z,69.13
2019-03-29T10:48:09.141Z,68.97
2019-03-29T10:50:37.550Z,69.19
2019-03-29T10:53:06.122Z,69.42
2019-03-29T10:55:34.611Z,70.38
2019-03-29T10:58:02.992Z,68.99
2019-03-29T11:00:36.781Z,68.55
2019-03-29T11:03:06.125Z,67.49
2019-03-29T11:05:34.632Z,68.30
2019-03-29T11:08:03.190Z,68.14
2019-03-29T11:10:34.304Z,69.12
2019-03-29T11:13:12.724Z,69.11
2019-03-29T11:15:33.465Z,69.56
2019-03-29T11:18:01.869Z,69.41
2019-03-29T11:20:30.523Z,68.41
2019-03-29T11:22:58.983Z,68.60
2019-03-29T11:25:27.509Z,67.19
2019-03-29T11:27:56.010Z,66.30
2019-03-29T11:30:24.526Z,65.94
2019-03-29T11:32:52.978Z,66.92
2019-03-29T11:35:21.389Z,67.23
2019-03-29T11:37:49.812Z,66.87
2019-03-29T11:40:18.462Z,66.84
2019-03-29T11:42:46.941Z,65.89
2019-03-29T11:45:15.419Z,64.89
2019-03-29T11:47:43.914Z,65.45
2019-03-29T11:50:12.701Z,64.74
2019-03-29T11:52:41.287Z,64.61
2019-03-29T11:55:09.779Z,65.63
2019-03-29T11:57:38.186Z,64.85
2019-03-29T12:00:09.446Z,65.64
2019-03-29T12:02:37.862Z,64.87
2019-03-29T12:05:07.663Z,64.39
2019-03-29T12:07:36.134Z,63.63
2019-03-29T12:10:06.374Z,64.03
2019-03-29T12:12:34.879Z,63.55
2019-03-29T12:15:03.520Z,64.11
2019-03-29T12:17:31.886Z,63.73
2019-03-29T12:20:00.511Z,64.27
2019-03-29T12:22:28.873Z,64.63
2019-03-29T12:24:57.288Z,63.96
2019-03-29T12:27:25.696Z,64.64
2019-03-29T12:29:54.123Z,63.68
2019-03-29T12:32:22.555Z,61.97
2019-03-29T12:34:50.962Z,59.59
2019-03-29T12:37:19.449Z,59.68
2019-03-29T12:39:47.879Z,57.11
2019-03-29T12:42:16.272Z,59.42
2019-03-29T12:44:44.711Z,57.24
2019-03-29T12:47:13.187Z,57.74
2019-03-29T12:49:41.692Z,54.54
2019-03-29T12:52:10.091Z,56.72
2019-03-29T12:54:38.507Z,55.12
2019-03-29T12:57:07.269Z,52.24
2019-03-29T12:59:35.827Z,51.42
2019-03-29T13:02:04.498Z,51.80
2019-03-29T13:04:32.932Z,52.01
2019-03-29T13:07:01.351Z,53.79
2019-03-29T13:09:29.805Z,51.62
2019-03-29T13:11:58.262Z,49.16
2019-03-29T13:14:26.737Z,47.91
2019-03-29T13:16:55.234Z,49.28
2019-03-29T13:19:23.646Z,48.29
2019-03-29T13:21:52.065Z,48.08
2019-03-29T13:24:20.554Z,49.33
2019-03-29T13:26:48.995Z,48.37
2019-03-29T13:29:17.480Z,51.10
2019-03-29T13:31:45.952Z,47.76
2019-03-29T13:34:14.462Z,49.50
2019-03-29T13:36:42.856Z,48.16
2019-03-29T13:39:11.446Z,48.08
2019-03-29T13:41:39.842Z,48.56
2019-03-29T13:44:08.286Z,46.93
2019-03-29T13:46:36.706Z,46.76
2019-03-29T13:49:05.228Z,46.88
2019-03-29T13:51:33.616Z,47.32
2019-03-29T13:54:02.027Z,45.64
2019-03-29T13:56:30.456Z,45.92
2019-03-29T13:58:58.990Z,47.39
2019-03-29T14:01:27.491Z,44.67
2019-03-29T14:03:55.883Z,45.88
2019-03-29T14:06:24.290Z,45.81
2019-03-29T14:08:52.687Z,46.22
2019-03-29T14:11:21.105Z,47.44
2019-03-29T14:13:49.579Z,44.53
2019-03-29T14:16:17.997Z,46.05
2019-03-29T14:18:46.422Z,44.38
2019-03-29T14:21:14.820Z,44.26
2019-03-29T14:23:43.261Z,45.99
2019-03-29T14:26:11.678Z,44.42
2019-03-29T14:28:40.082Z,46.56
2019-03-29T14:31:08.621Z,44.21
2019-03-29T14:33:37.054Z,42.86
2019-03-29T14:36:05.447Z,43.58
2019-03-29T14:38:33.871Z,43.59
2019-03-29T14:41:02.293Z,43.63
2019-03-29T14:43:30.785Z,43.00
2019-03-29T14:45:59.219Z,44.39
2019-03-29T14:48:27.655Z,45.14
2019-03-29T14:50:56.061Z,45.21
2019-03-29T14:53:24.486Z,45.55
2019-03-29T14:55:52.881Z,46.10
2019-03-29T14:58:21.305Z,45.50
2019-03-29T15:00:49.701Z,45.87
2019-03-29T15:03:18.102Z,45.31
2019-03-29T15:05:46.607Z,45.71
2019-03-29T15:08:15.016Z,46.98
2019-03-29T15:10:45.775Z,45.22
2019-03-29T15:13:13.582Z,46.24
2019-03-29T15:15:41.994Z,45.79
2019-03-29T15:18:10.386Z,46.56
2019-03-29T15:20:52.143Z,46.23
2019-03-29T15:23:08.963Z,46.08
2019-03-29T15:25:40.452Z,47.24
2019-03-29T15:28:07.610Z,45.40
2019-03-29T15:30:36.107Z,46.42
2019-03-29T15:33:04.536Z,46.42
2019-03-29T15:35:33.010Z,46.96
2019-03-29T15:38:01.486Z,46.64
2019-03-29T15:40:30.003Z,46.84
2019-03-29T15:42:58.491Z,46.10
2019-03-29T15:45:26.957Z,46.64
2019-03-29T15:47:55.355Z,46.49
2019-03-29T15:50:23.824Z,47.00
2019-03-29T15:52:52.250Z,47.39
2019-03-29T15:55:20.673Z,47.45
2019-03-29T15:57:49.089Z,48.11
2019-03-29T16:00:17.722Z,47.98
2019-03-29T16:02:46.130Z,48.30
2019-03-29T16:05:14.574Z,47.37
2019-03-29T16:07:43.119Z,46.83
2019-03-29T16:10:11.697Z,46.78
2019-03-29T16:12:40.149Z,47.48
2019-03-29T16:15:08.702Z,48.41
2019-03-29T16:17:37.192Z,48.56
2019-03-29T16:20:06.545Z,48.35
2019-03-29T16:22:35.233Z,48.49
2019-03-29T16:25:07.728Z,47.36
2019-03-29T16:27:36.243Z,47.97
2019-03-29T16:30:06.889Z,48.84
2019-03-29T16:32:36.139Z,48.77
2019-03-29T16:35:06.922Z,48.44
2019-03-29T16:37:35.428Z,49.60
2019-03-29T16:40:07.663Z,49.38
2019-03-29T16:42:36.245Z,48.77
2019-03-29T16:45:07.081Z,49.06
2019-03-29T16:47:35.540Z,51.10
2019-03-29T16:50:08.465Z,48.99
2019-03-29T16:52:36.887Z,49.24
2019-03-29T16:55:13.750Z,50.33
2019-03-29T16:57:37.565Z,48.92
2019-03-29T17:00:12.548Z,49.39
2019-03-29T17:02:41.455Z,50.56
2019-03-29T17:05:10.128Z,51.44
2019-03-29T17:07:38.545Z,52.00
2019-03-29T17:10:08.080Z,53.18
2019-03-29T17:12:36.501Z,51.62
2019-03-29T17:15:06.558Z,50.82
2019-03-29T17:17:35.448Z,51.61
2019-03-29T17:20:06.298Z,52.25
2019-03-29T17:22:35.435Z,52.09
2019-03-29T17:25:06.107Z,51.96
2019-03-29T17:27:34.577Z,53.73
2019-03-29T17:30:03.448Z,54.02
2019-03-29T17:32:31.897Z,54.30
2019-03-29T17:35:00.391Z,53.08
2019-03-29T17:37:28.744Z,55.18
2019-03-29T17:39:57.270Z,53.41
2019-03-29T17:42:25.681Z,54.28
2019-03-29T17:44:54.096Z,55.75
2019-03-29T17:47:22.597Z,56.15
2019-03-29T17:49:51.008Z,56.06
2019-03-29T17:52:19.427Z,57.12
2019-03-29T17:54:47.847Z,57.50
2019-03-29T17:57:16.275Z,58.01
2019-03-29T17:59:44.674Z,57.33
2019-03-29T18:02:13.154Z,56.58
2019-03-29T18:04:41.651Z,56.53
2019-03-29T18:07:10.078Z,57.80
2019-03-29T18:09:38.506Z,57.85
2019-03-29T18:12:06.920Z,58.11
2019-03-29T18:14:35.319Z,59.55
2019-03-29T18:17:03.807Z,58.87
2019-03-29T18:19:32.251Z,59.72
2019-03-29T18:22:00.716Z,59.93
2019-03-29T18:24:29.107Z,60.74
2019-03-29T18:26:57.594Z,62.42
2019-03-29T18:29:26.008Z,61.74
2019-03-29T18:31:54.591Z,61.63
2019-03-29T18:34:24.534Z,63.05
2019-03-29T18:36:54.326Z,63.54
2019-03-29T18:39:23.477Z,64.19
2019-03-29T18:41:52.234Z,64.74
2019-03-29T18:44:20.975Z,65.05
2019-03-29T18:46:51.230Z,65.39
2019-03-29T18:49:19.637Z,66.54
2019-03-29T18:51:48.355Z,66.79
2019-03-29T18:54:16.770Z,67.37
2019-03-29T18:56:45.178Z,67.93
2019-03-29T18:59:13.573Z,67.15
2019-03-29T19:01:41.991Z,67.62
2019-03-29T19:04:10.397Z,67.95
2019-03-29T19:06:39.451Z,69.10
2019-03-29T19:09:08.003Z,67.64
2019-03-29T19:11:36.968Z,69.05
2019-03-29T19:14:05.439Z,68.40
2019-03-29T19:16:33.852Z,68.98
2019-03-29T19:19:09.903Z,69.18
2019-03-29T19:21:32.637Z,69.67
2019-03-29T19:24:01.081Z,69.93
2019-03-29T19:26:29.557Z,69.84
2019-03-29T19:28:57.959Z,70.35
2019-03-29T19:31:26.373Z,71.04
2019-03-29T19:33:54.769Z,71.48
2019-03-29T19:36:23.199Z,70.91
2019-03-29T19:38:52.425Z,71.23
2019-03-29T19:41:20.826Z,71.39
2019-03-29T19:43:49.254Z,71.17
2019-03-29T19:46:17.708Z,71.33
2019-03-29T19:48:46.105Z,71.82
2019-03-29T19:51:14.509Z,71.92
2019-03-29T19:53:43.029Z,72.69
2019-03-29T19:56:11.398Z,72.06
2019-03-29T19:58:39.850Z,71.88
2019-03-29T20:01:08.226Z,72.00
2019-03-29T20:03:36.665Z,72.14
2019-03-29T20:06:05.111Z,72.05
2019-03-29T20:08:33.513Z,72.89
2019-03-29T20:11:02.052Z,73.07
2019-03-29T20:13:30.471Z,73.23
2019-03-29T20:15:58.904Z,73.26
2019-03-29T20:18:27.315Z,73.42
2019-03-29T20:20:55.716Z,73.48
2019-03-29T20:23:24.184Z,73.63
2019-03-29T20:25:52.571Z,73.04
2019-03-29T20:28:20.999Z,73.22
2019-03-29T20:30:49.411Z,72.59
2019-03-29T20:33:17.854Z,73.28
2019-03-29T20:35:46.321Z,72.76
2019-03-29T20:38:14.844Z,73.25
2019-03-29T20:40:43.308Z,73.32
2019-03-29T20:43:11.729Z,73.30
2019-03-29T20:45:40.208Z,73.84
2019-03-29T20:48:08.644Z,74.76
2019-03-29T20:50:37.144Z,74.83
2019-03-29T20:53:05.531Z,75.20
2019-03-29T20:55:34.174Z,74.77
2019-03-29T20:58:02.602Z,74.27
2019-03-29T21:00:33.879Z,75.52
2019-03-29T21:03:02.296Z,74.43
2019-03-29T21:05:30.720Z,74.44
2019-03-29T21:07:59.201Z,74.50
2019-03-29T21:10:27.653Z,73.95
2019-03-29T21:12:56.248Z,74.19
2019-03-29T21:15:24.802Z,73.87
2019-03-29T21:17:57.063Z,74.32
2019-03-29T21:20:23.423Z,74.51
2019-03-29T21:22:51.925Z,74.41
2019-03-29T21:25:20.371Z,74.48
2019-03-29T21:27:48.800Z,75.36
2019-03-29T21:30:17.553Z,75.50
2019-03-29T21:32:46.013Z,75.82
2019-03-29T21:35:14.563Z,75.97
2019-03-29T21:37:42.968Z,75.41
2019-03-29T21:40:13.484Z,75.81
2019-03-29T21:42:41.853Z,75.88
2019-03-29T21:45:10.704Z,76.35
2019-03-29T21:47:39.182Z,75.92
2019-03-29T21:50:10.433Z,75.37
2019-03-29T21:52:38.913Z,76.18
2019-03-29T21:55:08.854Z,75.47
2019-03-29T21:57:37.279Z,76.49
2019-03-29T22:00:08.669Z,75.90
2019-03-29T22:02:37.085Z,76.39
2019-03-29T22:05:10.149Z,76.69
2019-03-29T22:07:36.879Z,76.45
2019-03-29T22:10:08.548Z,76.58
2019-03-29T22:12:37.114Z,76.27
2019-03-29T22:15:08.365Z,75.68
2019-03-29T22:17:36.917Z,76.10
2019-03-29T22:20:09.477Z,76.14
2019-03-29T22:22:38.178Z,76.71
2019-03-29T22:25:08.241Z,76.66
2019-03-29T22:27:36.703Z,76.21
2019-03-29T22:30:08.183Z,75.88
2019-03-29T22:32:36.588Z,76.23
2019-03-29T22:35:07.447Z,76.18
2019-03-29T22:37:35.882Z,77.46
2019-03-29T22:40:09.231Z,76.71
2019-03-29T22:42:45.250Z,77.61
2019-03-29T22:45:14.354Z,76.69
2019-03-29T22:47:42.727Z,76.45
2019-03-29T22:50:14.855Z,77.17
2019-03-29T22:52:43.244Z,77.73
2019-03-29T22:55:11.731Z,76.91
2019-03-29T22:57:40.126Z,77.70
2019-03-29T23:00:14.139Z,77.17
2019-03-29T23:02:42.799Z,78.15
2019-03-29T23:05:11.289Z,78.10
2019-03-29T23:07:39.784Z,78.14
2019-03-29T23:10:08.274Z,78.30
2019-03-29T23:12:36.657Z,77.80
2019-03-29T23:15:07.383Z,78.55
2019-03-29T23:17:35.781Z,76.91
2019-03-29T23:20:05.144Z,76.59
2019-03-29T23:22:33.517Z,77.27
2019-03-29T23:25:01.944Z,77.60
2019-03-29T23:27:30.356Z,77.64
2019-03-29T23:29:58.782Z,77.95
2019-03-29T23:32:27.254Z,78.20
2019-03-29T23:34:55.652Z,78.10
2019-03-29T23:37:24.163Z,78.44
2019-03-29T23:39:52.646Z,79.07
2019-03-29T23:42:21.431Z,78.65
2019-03-29T23:44:49.867Z,78.55
2019-03-29T23:47:18.275Z,79.48
2019-03-29T23:49:46.688Z,79.62
2019-03-29T23:52:15.103Z,79.09
2019-03-29T23:54:43.584Z,78.88
2019-03-29T23:57:12.008Z,79.16
